createdAt,value
2018-06-04T00:00:01.241Z,990.12
2018-06-04T00:01:01.471Z,990.11
2018-06-04T00:02:01.708Z,990.10
2018-06-04T00:03:01.937Z,990.13
2018-06-04T00:04:02.167Z,990.07
2018-06-04T00:05:02.400Z,990.05
2018-06-04T00:06:02.631Z,990.09
2018-06-04T00:07:02.855Z,990.03
2018-06-04T00:08:03.089Z,990.02
2018-06-04T00:09:03.325Z,990.05
2018-06-04T00:10:03.557Z,990.03
2018-06-04T00:11:03.794Z,989.99
2018-06-04T00:12:04.017Z,990.02
2018-06-04T00:13:04.285Z,990.02
2018-06-04T00:14:04.510Z,989.99
2018-06-04T00:15:04.739Z,990.01
2018-06-04T00:16:04.971Z,990.00
2018-06-04T00:17:05.203Z,990.00
2018-06-04T00:18:05.437Z,990.03
2018-06-04T00:19:05.666Z,990.02
2018-06-04T00:20:05.899Z,990.00
2018-06-04T00:21:06.129Z,990.01
2018-06-04T00:22:06.358Z,990.01
2018-06-04T00:23:06.590Z,990.02
2018-06-04T00:24:06.818Z,990.01
2018-06-04T00:25:07.052Z,989.99
2018-06-04T00:26:07.279Z,989.97
2018-06-04T00:27:07.508Z,989.99
2018-06-04T00:28:07.741Z,989.96
2018-06-04T00:29:07.973Z,989.96
2018-06-04T00:30:08.204Z,989.94
2018-06-04T00:31:08.434Z,989.96
2018-06-04T00:32:08.664Z,989.93
2018-06-04T00:33:08.897Z,989.91
2018-06-04T00:34:09.127Z,989.93
2018-06-04T00:35:09.358Z,989.90
2018-06-04T00:36:09.590Z,989.91
2018-06-04T00:37:09.820Z,989.90
2018-06-04T00:38:10.054Z,989.85
2018-06-04T00:39:10.283Z,989.87
2018-06-04T00:40:10.519Z,989.87
2018-06-04T00:41:10.747Z,989.86
2018-06-04T00:42:10.976Z,989.80
2018-06-04T00:43:11.208Z,989.81
2018-06-04T00:44:11.436Z,989.81
2018-06-04T00:45:11.674Z,989.81
2018-06-04T00:46:11.901Z,989.83
2018-06-04T00:47:12.133Z,989.79
2018-06-04T00:48:12.371Z,989.76
2018-06-04T00:49:12.590Z,989.79
2018-06-04T00:50:12.848Z,989.78
2018-06-04T00:51:13.072Z,989.72
2018-06-04T00:52:13.300Z,989.74
2018-06-04T00:53:13.527Z,989.75
2018-06-04T00:54:13.761Z,989.76
2018-06-04T00:55:13.993Z,989.74
2018-06-04T00:56:14.229Z,989.75
2018-06-04T00:57:14.456Z,989.76
2018-06-04T00:58:14.691Z,989.78
2018-06-04T00:59:14.919Z,989.76
2018-06-04T01:00:15.150Z,989.78
2018-06-04T01:01:15.379Z,989.78
2018-06-04T01:02:15.613Z,989.80
2018-06-04T01:03:15.846Z,989.78
2018-06-04T01:04:16.075Z,989.75
2018-06-04T01:05:16.308Z,989.77
2018-06-04T01:06:16.540Z,989.79
2018-06-04T01:07:16.771Z,989.79
2018-06-04T01:08:17.000Z,989.83
2018-06-04T01:09:17.233Z,989.81
2018-06-04T01:10:17.465Z,989.80
2018-06-04T01:11:17.697Z,989.81
2018-06-04T01:12:17.927Z,989.80
2018-06-04T01:13:18.161Z,989.79
2018-06-04T01:14:18.392Z,989.79
2018-06-04T01:15:18.621Z,989.79
2018-06-04T01:16:18.860Z,989.81
2018-06-04T01:17:19.088Z,989.80
2018-06-04T01:18:19.318Z,989.75
2018-06-04T01:19:19.547Z,989.75
2018-06-04T01:20:19.779Z,989.76
2018-06-04T01:21:20.011Z,989.76
2018-06-04T01:22:20.239Z,989.74
2018-06-04T01:23:20.470Z,989.73
2018-06-04T01:24:20.705Z,989.74
2018-06-04T01:25:20.939Z,989.73
2018-06-04T01:26:21.171Z,989.71
2018-06-04T01:27:21.397Z,989.73
2018-06-04T01:28:21.636Z,989.72
2018-06-04T01:29:21.867Z,989.70
2018-06-04T01:30:22.095Z,989.72
2018-06-04T01:31:22.326Z,989.70
2018-06-04T01:32:22.564Z,989.70
2018-06-04T01:33:22.798Z,989.64
2018-06-04T01:34:23.026Z,989.63
2018-06-04T01:35:23.257Z,989.63
2018-06-04T01:36:23.486Z,989.64
2018-06-04T01:37:23.728Z,989.59
2018-06-04T01:38:23.954Z,989.61
2018-06-04T01:39:24.186Z,989.59
2018-06-04T01:40:24.415Z,989.60
2018-06-04T01:41:24.645Z,989.59
2018-06-04T01:42:24.877Z,989.56
2018-06-04T01:43:25.109Z,989.54
2018-06-04T01:44:25.342Z,989.52
2018-06-04T01:45:25.573Z,989.53
2018-06-04T01:46:25.802Z,989.57
2018-06-04T01:47:26.033Z,989.51
2018-06-04T01:48:26.264Z,989.50
2018-06-04T01:49:26.496Z,989.51
2018-06-04T01:50:26.729Z,989.50
2018-06-04T01:51:26.960Z,989.45
2018-06-04T01:52:27.190Z,989.45
2018-06-04T01:53:27.419Z,989.43
2018-06-04T01:54:27.643Z,989.43
2018-06-04T01:55:27.881Z,989.44
2018-06-04T01:56:28.104Z,989.46
2018-06-04T01:57:28.335Z,989.41
2018-06-04T01:58:28.565Z,989.40
2018-06-04T01:59:28.797Z,989.39
2018-06-04T02:00:29.027Z,989.42
2018-06-04T02:01:29.258Z,989.39
2018-06-04T02:02:29.491Z,989.38
2018-06-04T02:03:29.724Z,989.42
2018-06-04T02:04:29.952Z,989.40
2018-06-04T02:05:30.184Z,989.41
2018-06-04T02:06:30.415Z,989.39
2018-06-04T02:07:30.648Z,989.38
2018-06-04T02:08:30.879Z,989.37
2018-06-04T02:09:31.109Z,989.36
2018-06-04T02:10:31.340Z,989.31
2018-06-04T02:11:31.571Z,989.36
2018-06-04T02:12:31.804Z,989.34
2018-06-04T02:13:32.032Z,989.33
2018-06-04T02:14:32.264Z,989.35
2018-06-04T02:15:32.499Z,989.33
2018-06-04T02:16:32.727Z,989.31
2018-06-04T02:17:32.960Z,989.29
2018-06-04T02:18:33.191Z,989.25
2018-06-04T02:19:33.421Z,989.27
2018-06-04T02:20:33.651Z,989.27
2018-06-04T02:21:33.884Z,989.27
2018-06-04T02:22:34.115Z,989.25
2018-06-04T02:23:34.351Z,989.26
2018-06-04T02:24:34.579Z,989.28
2018-06-04T02:25:34.811Z,989.26
2018-06-04T02:26:35.042Z,989.23
2018-06-04T02:27:35.274Z,989.25
2018-06-04T02:28:35.507Z,989.24
2018-06-04T02:29:35.735Z,989.21
2018-06-04T02:30:35.965Z,989.22
2018-06-04T02:31:36.197Z,989.24
2018-06-04T02:32:36.426Z,989.20
2018-06-04T02:33:36.661Z,989.20
2018-06-04T02:34:36.889Z,989.21
2018-06-04T02:35:37.119Z,989.21
2018-06-04T02:36:37.352Z,989.23
2018-06-04T02:37:37.581Z,989.21
2018-06-04T02:38:37.813Z,989.21
2018-06-04T02:39:38.044Z,989.22
2018-06-04T02:40:38.275Z,989.25
2018-06-04T02:41:38.506Z,989.20
2018-06-04T02:42:38.740Z,989.23
2018-06-04T02:43:38.969Z,989.19
2018-06-04T02:44:39.202Z,989.22
2018-06-04T02:45:39.432Z,989.19
2018-06-04T02:46:39.665Z,989.21
2018-06-04T02:47:39.892Z,989.15
2018-06-04T02:48:40.123Z,989.16
2018-06-04T02:49:40.354Z,989.16
2018-06-04T02:50:40.586Z,989.19
2018-06-04T02:51:40.817Z,989.19
2018-06-04T02:52:41.049Z,989.19
2018-06-04T02:53:41.277Z,989.16
2018-06-04T02:54:41.507Z,989.22
2018-06-04T02:55:41.739Z,989.20
2018-06-04T02:56:41.970Z,989.18
2018-06-04T02:57:42.212Z,989.23
2018-06-04T02:58:42.432Z,989.22
2018-06-04T02:59:42.660Z,989.24
2018-06-04T03:00:42.894Z,989.25
2018-06-04T03:01:43.125Z,989.25
2018-06-04T03:02:43.369Z,989.27
2018-06-04T03:03:43.588Z,989.27
2018-06-04T03:04:43.828Z,989.27
2018-06-04T03:05:44.051Z,989.27
2018-06-04T03:06:44.286Z,989.27
2018-06-04T03:07:44.515Z,989.26
2018-06-04T03:08:44.746Z,989.22
2018-06-04T03:09:44.977Z,989.28
2018-06-04T03:10:45.208Z,989.27
2018-06-04T03:11:45.441Z,989.28
2018-06-04T03:12:45.674Z,989.27
2018-06-04T03:13:45.903Z,989.28
2018-06-04T03:14:46.133Z,989.26
2018-06-04T03:15:46.362Z,989.27
2018-06-04T03:16:46.598Z,989.26
2018-06-04T03:17:46.827Z,989.26
2018-06-04T03:18:47.058Z,989.25
2018-06-04T03:19:47.291Z,989.24
2018-06-04T03:20:47.521Z,989.23
2018-06-04T03:21:47.751Z,989.25
2018-06-04T03:22:47.982Z,989.27
2018-06-04T03:23:48.215Z,989.24
2018-06-04T03:24:48.446Z,989.22
2018-06-04T03:25:48.677Z,989.17
2018-06-04T03:26:48.909Z,989.18
2018-06-04T03:27:49.141Z,989.15
2018-06-04T03:28:49.376Z,989.16
2018-06-04T03:29:49.601Z,989.16
2018-06-04T03:30:49.836Z,989.15
2018-06-04T03:31:50.069Z,989.17
2018-06-04T03:32:50.301Z,989.19
2018-06-04T03:33:50.533Z,989.20
2018-06-04T03:34:50.776Z,989.19
2018-06-04T03:35:50.995Z,989.17
2018-06-04T03:36:51.227Z,989.20
2018-06-04T03:37:51.457Z,989.15
2018-06-04T03:38:51.689Z,989.17
2018-06-04T03:39:51.920Z,989.17
2018-06-04T03:40:52.152Z,989.16
2018-06-04T03:41:52.382Z,989.17
2018-06-04T03:42:52.615Z,989.21
2018-06-04T03:43:52.845Z,989.14
2018-06-04T03:44:53.077Z,989.20
2018-06-04T03:45:53.310Z,989.19
2018-06-04T03:46:53.543Z,989.19
2018-06-04T03:47:53.774Z,989.19
2018-06-04T03:48:54.003Z,989.16
2018-06-04T03:49:54.236Z,989.18
2018-06-04T03:50:54.466Z,989.17
2018-06-04T03:51:54.697Z,989.16
2018-06-04T03:52:54.929Z,989.17
2018-06-04T03:53:55.162Z,989.19
2018-06-04T03:54:55.397Z,989.18
2018-06-04T03:55:55.624Z,989.19
2018-06-04T03:56:55.857Z,989.20
2018-06-04T03:57:56.094Z,989.18
2018-06-04T03:58:56.320Z,989.20
2018-06-04T03:59:56.548Z,989.21
2018-06-04T04:00:56.782Z,989.22
2018-06-04T04:01:57.013Z,989.19
2018-06-04T04:02:57.308Z,989.15
2018-06-04T04:03:57.477Z,989.17
2018-06-04T04:04:57.709Z,989.21
2018-06-04T04:05:57.941Z,989.19
2018-06-04T04:06:58.171Z,989.23
2018-06-04T04:07:58.402Z,989.24
2018-06-04T04:08:58.636Z,989.22
2018-06-04T04:09:58.867Z,989.23
2018-06-04T04:10:59.100Z,989.22
2018-06-04T04:11:59.329Z,989.25
2018-06-04T04:12:59.567Z,989.26
2018-06-04T04:13:59.804Z,989.22
2018-06-04T04:15:00.028Z,989.18
2018-06-04T04:16:00.262Z,989.17
2018-06-04T04:17:00.496Z,989.15
2018-06-04T04:18:00.725Z,989.15
2018-06-04T04:19:00.956Z,989.18
2018-06-04T04:20:01.190Z,989.13
2018-06-04T04:21:01.427Z,989.14
2018-06-04T04:22:01.657Z,989.14
2018-06-04T04:23:01.890Z,989.10
2018-06-04T04:24:02.124Z,989.10
2018-06-04T04:25:02.357Z,989.12
2018-06-04T04:26:02.591Z,989.14
2018-06-04T04:27:02.824Z,989.19
2018-06-04T04:28:03.072Z,989.18
2018-06-04T04:29:03.290Z,989.17
2018-06-04T04:30:03.524Z,989.21
2018-06-04T04:31:03.758Z,989.17
2018-06-04T04:32:03.992Z,989.22
2018-06-04T04:33:04.226Z,989.22
2018-06-04T04:34:04.464Z,989.18
2018-06-04T04:35:04.693Z,989.27
2018-06-04T04:36:04.925Z,989.25
2018-06-04T04:37:05.160Z,989.22
2018-06-04T04:38:05.394Z,989.20
2018-06-04T04:39:05.629Z,989.21
2018-06-04T04:40:05.865Z,989.22
2018-06-04T04:41:06.098Z,989.15
2018-06-04T04:42:06.333Z,989.13
2018-06-04T04:43:06.567Z,989.14
2018-06-04T04:44:06.804Z,989.24
2018-06-04T04:45:07.043Z,989.23
2018-06-04T04:46:07.275Z,989.20
2018-06-04T04:47:07.510Z,989.29
2018-06-04T04:48:07.742Z,989.29
2018-06-04T04:49:07.977Z,989.27
2018-06-04T04:50:08.214Z,989.29
2018-06-04T04:51:08.451Z,989.33
2018-06-04T04:52:08.686Z,989.34
2018-06-04T04:53:08.919Z,989.37
2018-06-04T04:54:09.154Z,989.36
2018-06-04T04:55:09.394Z,989.36
2018-06-04T04:56:09.629Z,989.39
2018-06-04T04:57:09.859Z,989.36
2018-06-04T04:58:10.096Z,989.43
2018-06-04T04:59:10.331Z,989.42
2018-06-04T05:00:10.569Z,989.45
2018-06-04T05:01:10.802Z,989.47
2018-06-04T05:02:11.040Z,989.41
2018-06-04T05:03:11.276Z,989.44
2018-06-04T05:04:11.511Z,989.39
2018-06-04T05:05:11.748Z,989.38
2018-06-04T05:06:11.985Z,989.40
2018-06-04T05:07:12.224Z,989.39
2018-06-04T05:08:12.460Z,989.39
2018-06-04T05:09:12.695Z,989.37
2018-06-04T05:10:12.934Z,989.37
2018-06-04T05:11:13.171Z,989.36
2018-06-04T05:12:13.408Z,989.34
2018-06-04T05:13:13.646Z,989.34
2018-06-04T05:14:13.884Z,989.33
2018-06-04T05:15:14.121Z,989.36
2018-06-04T05:16:14.357Z,989.33
2018-06-04T05:17:14.594Z,989.35
2018-06-04T05:18:14.834Z,989.38
2018-06-04T05:19:15.068Z,989.38
2018-06-04T05:20:15.310Z,989.35
2018-06-04T05:21:15.547Z,989.32
2018-06-04T05:22:15.784Z,989.35
2018-06-04T05:23:16.023Z,989.35
2018-06-04T05:24:16.261Z,989.32
2018-06-04T05:25:16.499Z,989.36
2018-06-04T05:26:16.738Z,989.34
2018-06-04T05:27:16.976Z,989.32
2018-06-04T05:28:17.214Z,989.33
2018-06-04T05:29:17.454Z,989.31
2018-06-04T05:30:17.695Z,989.29
2018-06-04T05:31:17.930Z,989.33
2018-06-04T05:32:18.171Z,989.32
2018-06-04T05:33:18.412Z,989.33
2018-06-04T05:34:18.650Z,989.34
2018-06-04T05:35:18.893Z,989.32
2018-06-04T05:36:19.130Z,989.35
2018-06-04T05:37:19.369Z,989.33
2018-06-04T05:38:19.608Z,989.34
2018-06-04T05:39:19.848Z,989.33
2018-06-04T05:40:20.090Z,989.33
2018-06-04T05:41:20.329Z,989.31
2018-06-04T05:42:20.577Z,989.31
2018-06-04T05:43:20.808Z,989.30
2018-06-04T05:44:21.058Z,989.30
2018-06-04T05:45:21.289Z,989.32
2018-06-04T05:46:21.530Z,989.34
2018-06-04T05:47:21.767Z,989.35
2018-06-04T05:48:22.010Z,989.38
2018-06-04T05:49:22.250Z,989.33
2018-06-04T05:50:22.490Z,989.35
2018-06-04T05:51:22.737Z,989.35
2018-06-04T05:52:22.973Z,989.32
2018-06-04T05:53:23.215Z,989.37
2018-06-04T05:54:23.455Z,989.39
2018-06-04T05:55:23.695Z,989.35
2018-06-04T05:56:23.936Z,989.39
2018-06-04T05:57:24.177Z,989.35
2018-06-04T05:58:24.418Z,989.32
2018-06-04T05:59:24.663Z,989.32
2018-06-04T06:00:24.902Z,989.27
2018-06-04T06:01:25.142Z,989.31
2018-06-04T06:02:25.383Z,989.29
2018-06-04T06:03:25.633Z,989.27
2018-06-04T06:04:25.861Z,989.31
2018-06-04T06:05:26.102Z,989.30
2018-06-04T06:06:26.350Z,989.27
2018-06-04T06:07:26.584Z,989.28
2018-06-04T06:08:26.823Z,989.27
2018-06-04T06:09:27.064Z,989.25
2018-06-04T06:10:27.308Z,989.26
2018-06-04T06:11:27.547Z,989.26
2018-06-04T06:12:27.787Z,989.23
2018-06-04T06:13:28.025Z,989.21
2018-06-04T06:14:28.295Z,989.20
2018-06-04T06:15:28.498Z,989.21
2018-06-04T06:16:28.744Z,989.18
2018-06-04T06:17:28.982Z,989.18
2018-06-04T06:18:29.222Z,989.17
2018-06-04T06:19:29.464Z,989.18
2018-06-04T06:20:29.703Z,989.18
2018-06-04T06:21:29.949Z,989.16
2018-06-04T06:22:30.188Z,989.16
2018-06-04T06:23:30.430Z,989.15
2018-06-04T06:24:30.670Z,989.16
2018-06-04T06:25:30.911Z,989.16
2018-06-04T06:26:31.152Z,989.12
2018-06-04T06:27:31.393Z,989.09
2018-06-04T06:28:31.666Z,989.09
2018-06-04T06:29:31.877Z,989.10
2018-06-04T06:30:32.117Z,989.13
2018-06-04T06:31:32.360Z,989.05
2018-06-04T06:32:32.595Z,989.08
2018-06-04T06:33:32.837Z,989.07
2018-06-04T06:34:33.076Z,989.07
2018-06-04T06:35:33.318Z,989.05
2018-06-04T06:36:33.558Z,989.02
2018-06-04T06:37:33.819Z,989.04
2018-06-04T06:38:34.045Z,989.03
2018-06-04T06:39:34.284Z,989.01
2018-06-04T06:40:34.523Z,988.98
2018-06-04T06:41:34.764Z,988.95
2018-06-04T06:42:35.004Z,988.98
2018-06-04T06:43:35.249Z,988.93
2018-06-04T06:44:35.496Z,988.98
2018-06-04T06:45:35.735Z,988.94
2018-06-04T06:46:35.979Z,988.91
2018-06-04T06:47:36.218Z,988.88
2018-06-04T06:48:36.458Z,988.91
2018-06-04T06:49:36.696Z,988.94
2018-06-04T06:50:36.939Z,988.85
2018-06-04T06:51:37.180Z,988.85
2018-06-04T06:52:37.422Z,988.85
2018-06-04T06:53:37.660Z,988.83
2018-06-04T06:54:37.900Z,988.79
2018-06-04T06:55:38.140Z,988.79
2018-06-04T06:56:38.382Z,988.83
2018-06-04T06:57:38.621Z,988.81
2018-06-04T06:58:38.860Z,988.75
2018-06-04T06:59:39.103Z,988.81
2018-06-04T07:00:39.341Z,988.77
2018-06-04T07:01:39.602Z,988.78
2018-06-04T07:02:39.819Z,988.78
2018-06-04T07:03:40.057Z,988.72
2018-06-04T07:04:40.299Z,988.73
2018-06-04T07:05:40.533Z,988.69
2018-06-04T07:06:40.773Z,988.68
2018-06-04T07:07:41.064Z,988.70
2018-06-04T07:08:41.249Z,988.68
2018-06-04T07:09:41.491Z,988.65
2018-06-04T07:10:41.739Z,988.68
2018-06-04T07:11:41.974Z,988.64
2018-06-04T07:12:42.211Z,988.67
2018-06-04T07:13:42.450Z,988.62
2018-06-04T07:14:42.688Z,988.65
2018-06-04T07:15:42.929Z,988.67
2018-06-04T07:16:43.170Z,988.63
2018-06-04T07:17:43.414Z,988.65
2018-06-04T07:18:43.649Z,988.60
2018-06-04T07:19:43.888Z,988.64
2018-06-04T07:20:44.127Z,988.61
2018-06-04T07:21:44.365Z,988.58
2018-06-04T07:22:44.599Z,988.61
2018-06-04T07:23:44.839Z,988.61
2018-06-04T07:24:45.080Z,988.60
2018-06-04T07:25:45.313Z,988.58
2018-06-04T07:26:45.609Z,988.64
2018-06-04T07:27:45.789Z,988.58
2018-06-04T07:28:46.028Z,988.58
2018-06-04T07:29:46.265Z,988.53
2018-06-04T07:30:46.500Z,988.54
2018-06-04T07:31:46.737Z,988.51
2018-06-04T07:32:46.974Z,988.53
2018-06-04T07:33:47.209Z,988.52
2018-06-04T07:34:47.494Z,988.49
2018-06-04T07:35:47.687Z,988.48
2018-06-04T07:36:47.923Z,988.50
2018-06-04T07:37:48.161Z,988.46
2018-06-04T07:38:48.389Z,988.48
2018-06-04T07:39:48.637Z,988.47
2018-06-04T07:40:48.875Z,988.44
2018-06-04T07:41:49.115Z,988.42
2018-06-04T07:42:49.353Z,988.41
2018-06-04T07:43:49.588Z,988.39
2018-06-04T07:44:49.826Z,988.39
2018-06-04T07:45:50.109Z,988.37
2018-06-04T07:46:50.299Z,988.39
2018-06-04T07:47:50.554Z,988.35
2018-06-04T07:48:50.774Z,988.32
2018-06-04T07:49:51.011Z,988.36
2018-06-04T07:50:51.246Z,988.35
2018-06-04T07:51:51.483Z,988.32
2018-06-04T07:52:51.719Z,988.38
2018-06-04T07:53:51.953Z,988.27
2018-06-04T07:54:52.191Z,988.27
2018-06-04T07:55:52.429Z,988.30
2018-06-04T07:56:52.664Z,988.29
2018-06-04T07:57:52.901Z,988.27
2018-06-04T07:58:53.140Z,988.23
2018-06-04T07:59:53.377Z,988.29
2018-06-04T08:00:53.612Z,988.23
2018-06-04T08:01:53.853Z,988.22
2018-06-04T08:02:54.087Z,988.23
2018-06-04T08:03:54.325Z,988.22
2018-06-04T08:04:54.562Z,988.22
2018-06-04T08:05:54.801Z,988.22
2018-06-04T08:06:55.035Z,988.18
2018-06-04T08:07:55.271Z,988.19
2018-06-04T08:08:55.510Z,988.18
2018-06-04T08:09:55.800Z,988.20
2018-06-04T08:10:55.977Z,988.14
2018-06-04T08:11:56.218Z,988.12
2018-06-04T08:12:56.454Z,988.11
2018-06-04T08:13:56.691Z,988.13
2018-06-04T08:14:56.929Z,988.12
2018-06-04T08:15:57.167Z,988.13
2018-06-04T08:16:57.402Z,988.11
2018-06-04T08:17:57.642Z,988.08
2018-06-04T08:18:57.875Z,988.07
2018-06-04T08:19:58.114Z,988.10
2018-06-04T08:20:58.348Z,988.06
2018-06-04T08:21:58.584Z,988.07
2018-06-04T08:22:58.821Z,988.06
2018-06-04T08:23:59.061Z,988.04
2018-06-04T08:24:59.295Z,987.98
2018-06-04T08:25:59.532Z,988.00
2018-06-04T08:26:59.769Z,987.99
2018-06-04T08:28:00.005Z,987.97
2018-06-04T08:29:00.246Z,987.98
2018-06-04T08:30:00.483Z,987.98
2018-06-04T08:31:00.726Z,987.99
2018-06-04T08:32:00.956Z,987.95
2018-06-04T08:33:01.195Z,987.99
2018-06-04T08:34:01.429Z,987.96
2018-06-04T08:35:01.671Z,987.93
2018-06-04T08:36:01.905Z,987.93
2018-06-04T08:37:02.143Z,987.92
2018-06-04T08:38:02.381Z,987.91
2018-06-04T08:39:02.618Z,987.90
2018-06-04T08:40:02.853Z,987.89
2018-06-04T08:41:03.091Z,987.93
2018-06-04T08:42:03.326Z,987.91
2018-06-04T08:43:03.564Z,987.88
2018-06-04T08:44:03.800Z,987.89
2018-06-04T08:45:04.167Z,987.89
2018-06-04T08:46:04.228Z,987.88
2018-06-04T08:47:04.470Z,987.87
2018-06-04T08:48:04.696Z,987.89
2018-06-04T08:49:04.936Z,987.85
2018-06-04T08:50:05.181Z,987.85
2018-06-04T08:51:05.421Z,987.77
2018-06-04T08:52:05.657Z,987.84
2018-06-04T08:53:05.894Z,987.79
2018-06-04T08:54:06.131Z,987.79
2018-06-04T08:55:06.369Z,987.82
2018-06-04T08:56:06.607Z,987.83
2018-06-04T08:57:06.847Z,987.83
2018-06-04T08:58:07.083Z,987.78
2018-06-04T08:59:07.321Z,987.75
2018-06-04T09:00:07.557Z,987.77
2018-06-04T09:01:07.792Z,987.79
2018-06-04T09:02:08.032Z,987.76
2018-06-04T09:03:08.271Z,987.78
2018-06-04T09:04:08.505Z,987.86
2018-06-04T09:05:08.742Z,987.80
2018-06-04T09:06:08.982Z,987.77
2018-06-04T09:07:09.216Z,987.80
2018-06-04T09:08:09.452Z,987.79
2018-06-04T09:09:09.692Z,987.77
2018-06-04T09:10:09.926Z,987.79
2018-06-04T09:11:10.163Z,987.77
2018-06-04T09:12:10.399Z,987.72
2018-06-04T09:13:10.637Z,987.69
2018-06-04T09:14:10.876Z,987.77
2018-06-04T09:15:11.112Z,987.75
2018-06-04T09:16:11.348Z,987.74
2018-06-04T09:17:11.587Z,987.74
2018-06-04T09:18:11.824Z,987.72
2018-06-04T09:19:12.065Z,987.76
2018-06-04T09:20:12.308Z,987.73
2018-06-04T09:21:12.546Z,987.71
2018-06-04T09:22:12.785Z,987.68
2018-06-04T09:23:13.021Z,987.66
2018-06-04T09:24:13.258Z,987.67
2018-06-04T09:25:13.499Z,987.68
2018-06-04T09:26:13.735Z,987.67
2018-06-04T09:27:13.972Z,987.64
2018-06-04T09:28:14.206Z,987.63
2018-06-04T09:29:14.446Z,987.66
2018-06-04T09:30:14.690Z,987.64
2018-06-04T09:31:14.934Z,987.67
2018-06-04T09:32:15.191Z,987.66
2018-06-04T09:33:15.404Z,987.62
2018-06-04T09:34:15.641Z,987.64
2018-06-04T09:35:15.876Z,987.69
2018-06-04T09:36:16.114Z,987.72
2018-06-04T09:37:16.353Z,987.64
2018-06-04T09:38:16.589Z,987.69
2018-06-04T09:39:16.831Z,987.68
2018-06-04T09:40:17.070Z,987.68
2018-06-04T09:41:17.315Z,987.69
2018-06-04T09:42:17.540Z,987.66
2018-06-04T09:43:17.780Z,987.66
2018-06-04T09:44:18.023Z,987.68
2018-06-04T09:45:18.261Z,987.68
2018-06-04T09:46:18.499Z,987.66
2018-06-04T09:47:18.746Z,987.62
2018-06-04T09:48:18.981Z,987.68
2018-06-04T09:49:19.217Z,987.68
2018-06-04T09:50:19.456Z,987.69
2018-06-04T09:51:19.695Z,987.72
2018-06-04T09:52:19.932Z,987.70
2018-06-04T09:53:20.168Z,987.66
2018-06-04T09:54:20.406Z,987.67
2018-06-04T09:55:20.643Z,987.69
2018-06-04T09:56:20.887Z,987.68
2018-06-04T09:57:21.118Z,987.69
2018-06-04T09:58:21.356Z,987.65
2018-06-04T09:59:21.600Z,987.66
2018-06-04T10:00:21.842Z,987.69
2018-06-04T10:01:22.077Z,987.66
2018-06-04T10:02:22.312Z,987.64
2018-06-04T10:03:22.552Z,987.61
2018-06-04T10:04:22.791Z,987.59
2018-06-04T10:05:23.027Z,987.57
2018-06-04T10:06:23.268Z,987.59
2018-06-04T10:07:23.509Z,987.57
2018-06-04T10:08:23.744Z,987.53
2018-06-04T10:09:23.982Z,987.56
2018-06-04T10:10:24.220Z,987.52
2018-06-04T10:11:24.459Z,987.54
2018-06-04T10:12:24.695Z,987.50
2018-06-04T10:13:24.950Z,987.48
2018-06-04T10:14:25.172Z,987.50
2018-06-04T10:15:25.422Z,987.55
2018-06-04T10:16:25.644Z,987.53
2018-06-04T10:17:25.884Z,987.57
2018-06-04T10:18:26.122Z,987.56
2018-06-04T10:19:26.363Z,987.53
2018-06-04T10:20:26.597Z,987.52
2018-06-04T10:21:26.835Z,987.54
2018-06-04T10:22:27.077Z,987.54
2018-06-04T10:23:27.328Z,987.47
2018-06-04T10:24:27.553Z,987.54
2018-06-04T10:25:27.796Z,987.51
2018-06-04T10:26:28.032Z,987.53
2018-06-04T10:27:28.276Z,987.51
2018-06-04T10:28:28.506Z,987.48
2018-06-04T10:29:28.744Z,987.51
2018-06-04T10:30:28.984Z,987.53
2018-06-04T10:31:29.220Z,987.47
2018-06-04T10:32:29.456Z,987.43
2018-06-04T10:33:29.736Z,987.43
2018-06-04T10:34:29.930Z,987.47
2018-06-04T10:35:30.166Z,987.51
2018-06-04T10:36:30.405Z,987.45
2018-06-04T10:37:30.639Z,987.45
2018-06-04T10:38:30.877Z,987.41
2018-06-04T10:39:31.113Z,987.42
2018-06-04T10:40:31.429Z,987.39
2018-06-04T10:41:31.576Z,987.40
2018-06-04T10:42:31.816Z,987.41
2018-06-04T10:43:32.050Z,987.39
2018-06-04T10:44:32.290Z,987.38
2018-06-04T10:45:32.533Z,987.35
2018-06-04T10:46:32.825Z,987.33
2018-06-04T10:47:33.008Z,987.36
2018-06-04T10:48:33.246Z,987.36
2018-06-04T10:49:33.484Z,987.32
2018-06-04T10:50:33.724Z,987.34
2018-06-04T10:51:33.959Z,987.30
2018-06-04T10:52:34.195Z,987.37
2018-06-04T10:53:34.439Z,987.37
2018-06-04T10:54:34.667Z,987.40
2018-06-04T10:55:34.904Z,987.32
2018-06-04T10:56:35.141Z,987.32
2018-06-04T10:57:35.403Z,987.31
2018-06-04T10:58:35.618Z,987.31
2018-06-04T10:59:35.855Z,987.29
2018-06-04T11:00:36.094Z,987.30
2018-06-04T11:01:36.331Z,987.28
2018-06-04T11:02:36.579Z,987.30
2018-06-04T11:03:36.803Z,987.27
2018-06-04T11:04:37.044Z,987.23
2018-06-04T11:05:37.280Z,987.26
2018-06-04T11:06:37.526Z,987.22
2018-06-04T11:07:37.760Z,987.23
2018-06-04T11:08:37.995Z,987.22
2018-06-04T11:09:38.234Z,987.21
2018-06-04T11:10:38.473Z,987.19
2018-06-04T11:11:38.710Z,987.18
2018-06-04T11:12:38.943Z,987.19
2018-06-04T11:13:39.187Z,987.18
2018-06-04T11:14:39.420Z,987.19
2018-06-04T11:15:39.659Z,987.20
2018-06-04T11:16:39.899Z,987.15
2018-06-04T11:17:40.141Z,987.19
2018-06-04T11:18:40.378Z,987.18
2018-06-04T11:19:40.613Z,987.12
2018-06-04T11:20:40.854Z,987.15
2018-06-04T11:21:41.093Z,987.12
2018-06-04T11:22:41.328Z,987.05
2018-06-04T11:23:41.568Z,987.14
2018-06-04T11:24:41.807Z,987.10
2018-06-04T11:25:42.116Z,987.08
2018-06-04T11:26:42.286Z,987.10
2018-06-04T11:27:42.521Z,987.15
2018-06-04T11:28:42.761Z,987.12
2018-06-04T11:29:43.009Z,987.14
2018-06-04T11:30:43.238Z,987.11
2018-06-04T11:31:43.480Z,987.15
2018-06-04T11:32:43.715Z,987.08
2018-06-04T11:33:43.975Z,987.15
2018-06-04T11:34:44.186Z,987.10
2018-06-04T11:35:44.422Z,987.10
2018-06-04T11:36:44.657Z,987.07
2018-06-04T11:37:44.896Z,987.03
2018-06-04T11:38:45.132Z,986.98
2018-06-04T11:39:45.379Z,986.99
2018-06-04T11:40:45.613Z,986.97
2018-06-04T11:41:45.873Z,987.02
2018-06-04T11:42:46.120Z,987.01
2018-06-04T11:43:46.350Z,986.98
2018-06-04T11:44:46.591Z,986.96
2018-06-04T11:45:46.829Z,986.98
2018-06-04T11:46:47.073Z,986.94
2018-06-04T11:47:47.320Z,986.94
2018-06-04T11:48:47.547Z,986.88
2018-06-04T11:49:47.786Z,986.97
2018-06-04T11:50:48.030Z,986.96
2018-06-04T11:51:48.260Z,986.90
2018-06-04T11:52:48.501Z,986.93
2018-06-04T11:53:48.744Z,986.93
2018-06-04T11:54:48.981Z,986.93
2018-06-04T11:55:49.233Z,986.92
2018-06-04T11:56:49.499Z,986.86
2018-06-04T11:57:49.708Z,986.85
2018-06-04T11:58:49.947Z,986.90
2018-06-04T11:59:50.187Z,986.82
2018-06-04T12:00:50.429Z,986.85
2018-06-04T12:01:50.663Z,986.82
2018-06-04T12:02:50.901Z,986.84
2018-06-04T12:03:51.140Z,986.86
2018-06-04T12:04:51.377Z,986.84
2018-06-04T12:05:51.622Z,986.83
2018-06-04T12:06:51.854Z,986.85
2018-06-04T12:07:52.093Z,986.87
2018-06-04T12:08:52.330Z,986.85
2018-06-04T12:09:52.581Z,986.80
2018-06-04T12:10:52.806Z,986.80
2018-06-04T12:11:53.091Z,986.81
2018-06-04T12:12:53.287Z,986.82
2018-06-04T12:13:53.524Z,986.85
2018-06-04T12:14:53.768Z,986.78
2018-06-04T12:15:54.004Z,986.73
2018-06-04T12:16:54.245Z,986.80
2018-06-04T12:17:54.482Z,986.74
2018-06-04T12:18:54.721Z,986.72
2018-06-04T12:19:54.959Z,986.66
2018-06-04T12:20:55.195Z,986.68
2018-06-04T12:21:55.434Z,986.62
2018-06-04T12:22:55.674Z,986.66
2018-06-04T12:23:55.923Z,986.64
2018-06-04T12:24:56.165Z,986.63
2018-06-04T12:25:56.399Z,986.58
2018-06-04T12:26:56.638Z,986.60
2018-06-04T12:27:56.881Z,986.56
2018-06-04T12:28:57.116Z,986.57
2018-06-04T12:29:57.355Z,986.57
2018-06-04T12:30:57.591Z,986.57